• Join FlightAware (Why Join?)
  • Login
  • US Flag 
 
11:19PM EST


 

Airport Tracker/Info


-or-


 

Live Flight TrackerFlight Track Log ✈ EJA314 ✈ 20-Dec-2013 ✈ KAGS - KASG

Flight Track Log - Related Links

Times and Time Zones

All times are in EST time to prevent confusion due to time zone crossing. See the EJA314 flight status page for this flight to view local times or setup timezone preferences in your user account.

Time Position Orientation Groundspeed Altitude Reporting Facility
EST Latitude Longitude Course Direction KTS MPH feet Rate Location/Type
03:32PM 33.3269 -82.0300 279° West 223 257 7,200  Level Atlanta Center
03:33PM 33.3367 -82.1069 279° West 234 269 11,000 3,180 Climbing Atlanta Center
03:34PM 33.3506 -82.2011 280° West 262 302 13,600 2,940 Climbing Atlanta Center
03:35PM 33.3603 -82.2978 277° West 280 322 16,900 3,000 Climbing Atlanta Center
03:36PM 33.3697 -82.3872 277° West 292 336 19,600 2,400 Climbing Atlanta Center
03:37PM 33.3794 -82.4789 277° West 287 330 21,800 2,040 Climbing Atlanta Center
03:38PM 33.3950 -82.5658 282° West 282 325 23,700 1,800 Climbing Atlanta Center
03:39PM 33.4086 -82.6628 280° West 287 330 25,400 1,740 Climbing Atlanta Center
03:40PM 33.4222 -82.7644 279° West 300 345 27,200 1,680 Climbing Atlanta Center
03:41PM 33.4361 -82.8789 278° West 313 360 28,800 1,620 Climbing Atlanta Center
03:42PM 33.4642 -82.9806 288° West 313 360 30,500 1,620 Climbing Atlanta Center
03:43PM 33.4878 -83.0847 285° West 318 366 32,100 1,680 Climbing Atlanta Center
03:44PM 33.5136 -83.1867 287° West 325 374 33,900 1,800 Climbing Atlanta Center
03:45PM 33.5414 -83.2886 288° West 320 368 35,700 1,800 Climbing Atlanta Center
03:46PM 33.5650 -83.3831 287° West 314 361 37,500 1,800 Climbing Atlanta Center
03:47PM 33.5883 -83.4778 286° West 299 344 39,300 1,080 Climbing Atlanta Center
03:48PM 33.6139 -83.5675 289° West 294 338 39,700 300 Climbing Atlanta Center
03:49PM 33.6372 -83.6644 286° West 299 344 40,000 120 Climbing Atlanta Center
03:50PM 33.6603 -83.7667 285° West 310 357 40,000  Level Atlanta Center
03:51PM 33.6836 -83.8617 286° West 323 372 40,000  Level Atlanta Center
03:52PM 33.7108 -83.9689 287° West 335 386 40,000  Level Atlanta Center
03:53PM 33.7400 -84.0814 287° West 340 391 40,000  Level Atlanta Center
03:54PM 33.7669 -84.1911 286° West 340 391 40,000  Level Atlanta Center
03:55PM 33.7919 -84.3014 285° West 340 391 40,000  Level Atlanta Center
03:56PM 33.8208 -84.4114 288° West 340 391 40,000  Level Atlanta Center
03:57PM 33.8497 -84.5317 286° West 340 391 40,000  Level Atlanta Center
03:58PM 33.8764 -84.6417 286° West 340 391 40,000  Level Atlanta Center
03:59PM 33.9028 -84.7522 286° West 340 391 40,000  Level Atlanta Center
04:00PM 33.9253 -84.8500 286° West 341 392 40,000  Level Atlanta Center
04:01PM 33.9517 -84.9553 287° West 341 392 40,000  Level Atlanta Center
04:02PM 33.9778 -85.0658 286° West 341 392 40,000  Level Atlanta Center
04:03PM 34.0019 -85.1739 285° West 341 392 40,000  Level Atlanta Center
04:04PM 34.0281 -85.2769 287° West 341 392 40,000  Level Atlanta Center
04:05PM 34.0519 -85.3903 284° West 341 392 40,000  Level Atlanta Center
04:06PM 34.0797 -85.5086 286° West 341 392 40,000  Level Atlanta Center
04:07PM 34.1078 -85.6169 287° West 341 392 40,000  Level Atlanta Center
04:08PM 34.1314 -85.7253 285° West 334 384 40,000  Level Atlanta Center
04:09PM 34.1508 -85.8161 285° West 326 375 40,000  Level Atlanta Center
04:10PM 34.1744 -85.9244 285° West 326 375 40,000  Level Atlanta Center
04:11PM 34.1978 -86.0281 285° West 326 375 40,000  Level Atlanta Center
04:12PM 34.2211 -86.1339 285° West 321 369 40,000  Level Atlanta Center
04:13PM 34.2442 -86.2375 285° West 321 369 40,000  Level Atlanta Center
04:14PM 34.2694 -86.3414 286° West 321 369 40,000  Level Atlanta Center
04:15PM 34.2903 -86.4475 283° West 321 369 40,000  Level Atlanta Center
04:16PM 34.3153 -86.5539 286° West 321 369 40,000  Level Atlanta Center
04:18PM 34.3522 -86.7244 285° West 325 374 40,000  Level Memphis Center
04:19PM 34.3742 -86.8294 284° West 324 373 40,000  Level Memphis Center
04:20PM 34.3975 -86.9358 285° West 327 376 40,000  Level Memphis Center
04:21PM 34.4208 -87.0419 285° West 328 377 40,000  Level Memphis Center
04:22PM 34.4436 -87.1467 285° West 325 374 40,000  Level Memphis Center
04:23PM 34.4681 -87.2644 284° West 325 374 40,000  Level Memphis Center
04:24PM 34.4911 -87.3708 285° West 325 374 40,000  Level Memphis Center
04:25PM 34.5153 -87.4767 286° West 325 374 40,000  Level Memphis Center
04:26PM 34.5419 -87.6025 284° West 328 377 40,000  Level Memphis Center
04:27PM 34.5631 -87.7086 284° West 323 372 40,000  Level Memphis Center
04:28PM 34.5853 -87.8150 284° West 322 371 40,000  Level Memphis Center
04:29PM 34.6069 -87.9203 284° West 323 372 40,000  Level Memphis Center
04:30PM 34.6289 -88.0256 284° West 324 373 40,000  Level Memphis Center
04:31PM 34.6503 -88.1311 284° West 324 373 40,000  Level Memphis Center
04:32PM 34.6767 -88.2594 284° West 327 376 40,000  Level Memphis Center
04:33PM 34.6981 -88.3664 284° West 327 376 40,000  Level Memphis Center
04:34PM 34.7203 -88.4736 284° West 328 377 40,000  Level Memphis Center
04:35PM 34.7422 -88.5872 283° West 329 379 40,000  Level Memphis Center
04:36PM 34.7644 -88.6961 284° West 329 379 40,000  Level Memphis Center
04:37PM 34.7858 -88.8053 283° West 329 379 40,000  Level Memphis Center
04:38PM 34.8075 -88.9131 284° West 326 375 40,000  Level Memphis Center
04:39PM 34.8289 -89.0219 283° West 328 377 40,000  Level Memphis Center
04:40PM 34.8536 -89.1458 284° West 323 372 40,000  Level Memphis Center
04:41PM 34.8744 -89.2528 283° West 322 371 40,000  Level Memphis Center
04:43PM 34.8958 -89.3589 284° West 321 369 40,000  Level Memphis Center
04:44PM 34.9161 -89.4656 283° West 321 369 40,000  Level Memphis Center
04:45PM 34.9367 -89.5714 283° West 321 369 40,000  Level Memphis Center
04:46PM 34.9581 -89.6769 284° West 322 371 40,000  Level Memphis Center
04:47PM 34.9814 -89.8014 283° West 325 374 40,000  Level Memphis Center
04:48PM 35.0017 -89.9078 283° West 323 372 40,000  Level Memphis Center
04:49PM 35.0244 -90.0147 285° West 325 374 40,000  Level Memphis Center
04:50PM 35.0592 -90.1192 292° West 330 380 40,000  Level Memphis Center
04:51PM 35.0919 -90.2256 291° West 332 382 40,000  Level Memphis Center
04:52PM 35.1308 -90.3469 291° West 327 376 40,000  Level Memphis Center
04:53PM 35.1636 -90.4531 291° West 330 380 40,000  Level Memphis Center
04:54PM 35.1969 -90.5594 291° West 333 383 40,000  Level Memphis Center
04:55PM 35.2311 -90.6672 291° West 335 386 40,000  Level Memphis Center
04:56PM 35.2650 -90.7736 291° West 334 384 40,000  Level Memphis Center
04:57PM 35.2961 -90.8803 290° West 331 381 40,000  Level Memphis Center
04:58PM 35.3286 -90.9850 291° West 328 377 40,000  Level Memphis Center
04:59PM 35.3661 -91.1056 291° West 327 376 40,000  Level Memphis Center
05:00PM 35.3986 -91.2092 291° West 326 375 40,000  Level Memphis Center
05:01PM 35.4306 -91.3169 290° West 327 376 40,000  Level Memphis Center
05:02PM 35.4608 -91.4167 290° West 325 374 40,000  Level Memphis Center
05:03PM 35.4933 -91.5197 291° West 325 374 40,000  Level Memphis Center
05:04PM 35.5239 -91.6222 290° West 322 371 40,000  Level Memphis Center
05:05PM 35.5608 -91.7456 290° West 322 371 40,000  Level Memphis Center
05:06PM 35.5925 -91.8475 291° West 322 371 40,000 -660 Level Memphis Center
05:07PM 35.6228 -91.9525 290° West 325 374 38,700 -1,560 Descending Memphis Center
05:08PM 35.6525 -92.0597 289° West 330 380 36,800 -2,160 Descending Memphis Center
05:09PM 35.6856 -92.1683 291° West 338 389 34,200 -2,700 Descending Memphis Center
05:10PM 35.7222 -92.2967 289° West 335 386 31,300 -2,460 Descending Memphis Center
05:11PM 35.7744 -92.4150 299° West 398 458 29,200 -2,100 Descending Memphis Center
05:13PM 35.8308 -92.5319 301° West 404 465 27,000 -2,160 Descending Memphis Center
05:14PM 35.8842 -92.6489 299° West 398 458 24,800 -1,800 Descending Memphis Center
05:15PM 35.9161 -92.7708 288° West 383 441 23,400 -1,860 Descending Memphis Center
05:16PM 35.9525 -92.9158 287° West 376 433 21,000 -2,160 Descending Memphis Center
05:17PM 35.9814 -93.0331 287° West 368 423 19,000 -1,980 Descending Memphis Center
05:18PM 36.0094 -93.1506 286° West 362 417 17,000 -1,500 Descending Memphis Center
05:19PM 36.0358 -93.2653 286° West 352 405 16,000 -1,380 Descending Memphis Center
05:21PM 36.0583 -93.5014 277° West 320 368 12,900 -1,620 Descending Memphis Center
05:22PM 36.0608 -93.6111 272° West 321 369 11,000 -1,800 Descending Memphis Center
05:23PM 36.0628 -93.7008 272° West 269 310 9,200 -1,980 Descending Memphis Center
05:24PM 36.0658 -93.7847 273° West 249 287 7,000 -2,040 Descending Memphis Center
05:25PM 36.0689 -93.8656 273° West 241 277 5,100 -1,500 Descending Memphis Center
05:26PM 36.0694 -93.9631 270° West 240 276 4,000 -300 Descending Memphis Center
05:31PM 36.1534 -94.2504 270° West 144 166 3,300 -180 Descending FlightAware ADS-B (KASG)
05:36PM 36.2667 -94.3000 270° West  Level FlightAware Approximate
05:37PM 36.2816 -94.3078 270° West  Level Estimated
05:38PM 36.2816 -94.3078 270° West  Level Estimated
05:39PM 36.2816 -94.3078 270° West  Level Estimated
05:40PM 36.2816 -94.3078 270° West  Level Estimated
05:41PM 36.2816 -94.3078 270° West  Level Estimated
05:42PM 36.2816 -94.3078 270° West  Level Estimated
05:43PM 36.2816 -94.3078 270° West  Level Estimated